Time,TemperatureF,DewpointF,PressureIn,WindDirection,WindDirectionDegrees,WindSpeedMPH,WindSpeedGustMPH,Humidity,HourlyPrecipIn,Conditions,Clouds,dailyrainin,SoftwareType,DateUTC
2013-03-07 00:00:00,36.5,25.1,30.12,NNW,329,9.0,20.0,63,0.00,RA,,0.00,WeatherDisplay:10.37,2013-03-07 05:00:00,
2013-03-07 00:15:00,36.3,24.9,30.11,NNW,332,6.0,16.0,63,0.00,OVC,,0.00,WeatherDisplay:10.37,2013-03-07 05:15:00,
2013-03-07 00:30:00,36.3,24.9,30.12,NNW,335,3.0,14.0,63,0.00,OVC,,0.00,WeatherDisplay:10.37,2013-03-07 05:30:00,
2013-03-07 00:45:00,36.3,24.9,30.12,NNW,327,7.0,14.0,63,0.00,OVC,,0.00,WeatherDisplay:10.37,2013-03-07 05:45:00,
2013-03-07 01:00:00,36.3,24.5,30.12,NW,322,8.0,17.0,62,0.00,OVC,,0.00,WeatherDisplay:10.37,2013-03-07 06:00:00,
2013-03-07 01:15:00,36.3,24.5,30.13,NNW,334,7.0,14.0,62,0.00,OVC,,0.00,WeatherDisplay:10.37,2013-03-07 06:15:00,
2013-03-07 01:30:00,36.2,24.8,30.14,NNW,333,5.0,16.0,63,0.00,OVC,,0.00,WeatherDisplay:10.37,2013-03-07 06:30:00,
2013-03-07 01:45:00,36.2,24.8,30.14,NNW,343,6.0,15.0,63,0.00,OVC,,0.00,WeatherDisplay:10.37,2013-03-07 06:45:00,
2013-03-07 02:00:00,36.2,24.8,30.14,NW,322,5.0,16.0,63,0.00,OVC,,0.00,WeatherDisplay:10.37,2013-03-07 07:00:00,
2013-03-07 02:15:00,36.1,24.7,30.14,NNW,329,6.0,16.0,63,0.00,OVC,,0.00,WeatherDisplay:10.37,2013-03-07 07:15:00,
2013-03-07 02:30:00,36.0,25.0,30.13,NNW,345,3.0,12.0,64,0.00,OVC,,0.00,WeatherDisplay:10.37,2013-03-07 07:30:00,
2013-03-07 02:45:00,35.9,24.9,30.13,NW,325,3.0,10.0,64,0.00,OVC,,0.00,WeatherDisplay:10.37,2013-03-07 07:45:00,
2013-03-07 03:00:00,35.8,24.8,30.12,NNW,331,5.0,10.0,64,0.00,OVC,,0.00,WeatherDisplay:10.37,2013-03-07 08:00:00,
2013-03-07 03:15:00,35.7,24.7,30.12,NW,313,5.0,10.0,64,0.00,OVC,,0.00,WeatherDisplay:10.37,2013-03-07 08:15:00,
2013-03-07 03:30:00,35.6,24.6,30.12,NW,318,7.0,12.0,64,0.00,FEW,,0.00,WeatherDisplay:10.37,2013-03-07 08:30:00,
2013-03-07 03:45:00,35.4,24.4,30.11,NW,304,5.0,13.0,64,0.00,FEW,,0.00,WeatherDisplay:10.37,2013-03-07 08:45:00,
2013-03-07 04:00:00,35.1,24.1,30.12,NW,314,5.0,12.0,64,0.00,FEW,,0.00,WeatherDisplay:10.37,2013-03-07 09:00:00,
2013-03-07 04:15:00,34.9,23.9,30.12,NW,324,5.0,8.0,64,0.00,FEW,,0.00,WeatherDisplay:10.37,2013-03-07 09:15:00,
2013-03-07 04:30:00,35.0,24.0,30.13,NW,319,3.0,10.0,64,0.00,OVC,,0.00,WeatherDisplay:10.37,2013-03-07 09:30:00,
2013-03-07 04:45:00,34.9,23.9,30.13,NNW,328,2.0,7.0,64,0.00,OVC,,0.00,WeatherDisplay:10.37,2013-03-07 09:45:00,
2013-03-07 05:00:00,34.7,23.8,30.14,NW,313,1.0,9.0,64,0.00,OVC,,0.00,WeatherDisplay:10.37,2013-03-07 10:00:00,
2013-03-07 05:15:00,34.4,23.5,30.14,NW,310,3.0,9.0,64,0.00,OVC,,0.00,WeatherDisplay:10.37,2013-03-07 10:15:00,
2013-03-07 05:30:00,34.4,23.5,30.15,NW,307,3.0,12.0,64,0.00,BKN,,0.00,WeatherDisplay:10.37,2013-03-07 10:30:00,
2013-03-07 05:45:00,34.0,23.1,30.15,NW,314,0.0,6.0,64,0.00,BKN,,0.00,WeatherDisplay:10.37,2013-03-07 10:45:00,
2013-03-07 06:00:00,33.1,23.0,30.16,WNW,295,2.0,6.0,66,0.00,BKN,,0.00,WeatherDisplay:10.37,2013-03-07 11:00:00,
2013-03-07 06:15:00,32.2,22.5,30.17,West,280,0.0,4.0,67,0.00,BKN,,0.00,WeatherDisplay:10.37,2013-03-07 11:15:00,
2013-03-07 06:30:00,32.6,22.8,30.18,NW,320,2.0,10.0,67,0.00,FEW,,0.00,WeatherDisplay:10.37,2013-03-07 11:30:00,
2013-03-07 06:45:00,33.0,23.2,30.19,WNW,298,0.0,7.0,67,0.00,FEW,,0.00,WeatherDisplay:10.37,2013-03-07 11:45:00,
2013-03-07 07:00:00,33.1,23.3,30.19,WNW,302,2.0,7.0,67,0.00,FEW,,0.00,WeatherDisplay:10.37,2013-03-07 12:00:00,
2013-03-07 07:15:00,33.4,23.2,30.20,NW,311,3.0,8.0,66,0.00,FEW,,0.00,WeatherDisplay:10.37,2013-03-07 12:15:00,
2013-03-07 07:30:00,33.6,23.4,30.20,NW,312,0.0,8.0,66,0.00,FEW,,0.00,WeatherDisplay:10.37,2013-03-07 12:30:00,
2013-03-07 07:45:00,34.2,23.7,30.21,NW,316,3.0,7.0,65,0.00,FEW,,0.00,WeatherDisplay:10.37,2013-03-07 12:45:00,
2013-03-07 08:00:00,35.2,24.2,30.21,WNW,303,2.0,8.0,64,0.00,FEW,,0.00,WeatherDisplay:10.37,2013-03-07 13:00:00,
2013-03-07 08:15:00,35.9,24.5,30.22,West,270,1.0,9.0,63,0.00,FEW,,0.00,WeatherDisplay:10.37,2013-03-07 13:15:00,
2013-03-07 08:30:00,36.9,25.1,30.22,NW,307,1.0,10.0,62,0.00,CLR,,0.00,WeatherDisplay:10.37,2013-03-07 13:30:00,
2013-03-07 08:45:00,37.6,25.0,30.21,NW,320,3.0,9.0,60,0.00,CLR,,0.00,WeatherDisplay:10.37,2013-03-07 13:45:00,
2013-03-07 09:00:00,37.8,24.3,30.21,NNW,339,3.0,12.0,58,0.00,CLR,,0.00,WeatherDisplay:10.37,2013-03-07 14:00:00,
2013-03-07 09:15:00,38.5,25.0,30.22,NNW,341,6.0,12.0,58,0.00,CLR,,0.00,WeatherDisplay:10.37,2013-03-07 14:15:00,
2013-03-07 09:30:00,39.3,24.5,30.22,NNW,331,7.0,13.0,55,0.00,CLR,,0.00,WeatherDisplay:10.37,2013-03-07 14:30:00,
2013-03-07 09:45:00,40.2,25.3,30.22,NNW,345,5.0,12.0,55,0.00,CLR,,0.00,WeatherDisplay:10.37,2013-03-07 14:45:00,
2013-03-07 10:00:00,41.1,24.8,30.22,NNW,327,6.0,15.0,52,0.00,CLR,,0.00,WeatherDisplay:10.37,2013-03-07 15:00:00,
2013-03-07 10:15:00,41.4,24.6,30.22,NNW,339,7.0,16.0,51,0.00,CLR,,0.00,WeatherDisplay:10.37,2013-03-07 15:15:00,
2013-03-07 10:30:00,42.8,25.9,30.22,NW,323,6.0,12.0,51,0.00,SCT,,0.00,WeatherDisplay:10.37,2013-03-07 15:30:00,
2013-03-07 10:45:00,43.4,25.5,30.22,NNW,328,6.0,13.0,49,0.00,SCT,,0.00,WeatherDisplay:10.37,2013-03-07 15:45:00,
2013-03-07 11:00:00,43.5,25.5,30.22,NNW,337,7.0,15.0,49,0.00,SCT,,0.00,WeatherDisplay:10.37,2013-03-07 16:00:00,
2013-03-07 11:15:00,43.6,24.7,30.22,North,354,10.0,18.0,47,0.00,SCT,,0.00,WeatherDisplay:10.37,2013-03-07 16:15:00,
2013-03-07 11:30:00,44.8,25.8,30.22,NNW,332,7.0,13.0,47,0.00,FEW,,0.00,WeatherDisplay:10.37,2013-03-07 16:30:00,
2013-03-07 11:45:00,44.9,25.3,30.22,NNW,335,6.0,15.0,46,0.00,FEW,,0.00,WeatherDisplay:10.37,2013-03-07 16:45:00,
2013-03-07 12:00:00,45.2,25.1,30.21,NNW,338,2.0,12.0,45,0.00,FEW,,0.00,WeatherDisplay:10.37,2013-03-07 17:00:00,
2013-03-07 12:15:00,45.7,26.6,30.20,NNW,347,8.0,15.0,47,0.00,FEW,,0.00,WeatherDisplay:10.37,2013-03-07 17:15:00,
2013-03-07 12:30:00,46.4,26.2,30.20,NNW,343,7.0,17.0,45,0.00,SCT,,0.00,WeatherDisplay:10.37,2013-03-07 17:30:00,
2013-03-07 12:45:00,46.9,27.7,30.19,NNW,343,7.0,14.0,47,0.00,SCT,,0.00,WeatherDisplay:10.37,2013-03-07 17:45:00,
2013-03-07 13:00:00,46.9,26.7,30.19,NW,326,9.0,16.0,45,0.00,SCT,,0.00,WeatherDisplay:10.37,2013-03-07 18:00:00,
2013-03-07 13:15:00,46.9,27.7,30.18,NW,318,3.0,20.0,47,0.00,SCT,,0.00,WeatherDisplay:10.37,2013-03-07 18:15:00,
2013-03-07 13:30:00,47.2,26.4,30.17,NNW,338,9.0,16.0,44,0.00,CLR,,0.00,WeatherDisplay:10.37,2013-03-07 18:30:00,
2013-03-07 13:45:00,47.5,27.2,30.16,NNW,327,3.0,21.0,45,0.00,CLR,,0.00,WeatherDisplay:10.37,2013-03-07 18:45:00,
2013-03-07 14:00:00,47.6,26.7,30.16,NNW,337,8.0,17.0,44,0.00,CLR,,0.00,WeatherDisplay:10.37,2013-03-07 19:00:00,
2013-03-07 14:15:00,48.4,26.3,30.16,NNW,341,9.0,20.0,42,0.00,CLR,,0.00,WeatherDisplay:10.37,2013-03-07 19:15:00,
2013-03-07 14:30:00,48.1,26.6,30.16,NW,317,6.0,16.0,43,0.00,CLR,,0.00,WeatherDisplay:10.37,2013-03-07 19:30:00,
2013-03-07 14:45:00,47.9,25.9,30.17,NW,323,8.0,20.0,42,0.00,CLR,,0.00,WeatherDisplay:10.37,2013-03-07 19:45:00,
2013-03-07 15:00:00,48.0,26.5,30.17,NNW,331,9.0,14.0,43,0.00,CLR,,0.00,WeatherDisplay:10.37,2013-03-07 20:00:00,
2013-03-07 15:15:00,48.5,26.4,30.17,NW,321,8.0,15.0,42,0.00,CLR,,0.00,WeatherDisplay:10.37,2013-03-07 20:15:00,
2013-03-07 15:30:00,48.8,27.3,30.17,NNW,329,6.0,15.0,43,0.00,CLR,,0.00,WeatherDisplay:10.37,2013-03-07 20:30:00,
2013-03-07 15:45:00,48.3,27.4,30.17,NW,319,5.0,16.0,44,0.00,CLR,,0.00,WeatherDisplay:10.37,2013-03-07 20:45:00,
2013-03-07 16:00:00,48.2,27.3,30.17,NNW,338,5.0,12.0,44,0.00,CLR,,0.00,WeatherDisplay:10.37,2013-03-07 21:00:00,
2013-03-07 16:15:00,47.7,26.8,30.17,NNW,336,3.0,17.0,44,0.00,CLR,,0.00,WeatherDisplay:10.37,2013-03-07 21:15:00,
2013-03-07 16:30:00,47.1,26.3,30.18,NW,323,8.0,16.0,44,0.00,CLR,,0.00,WeatherDisplay:10.37,2013-03-07 21:30:00,
2013-03-07 16:45:00,46.5,25.8,30.18,NNW,348,7.0,15.0,44,0.00,CLR,,0.00,WeatherDisplay:10.37,2013-03-07 21:45:00,
2013-03-07 17:00:00,45.8,25.6,30.19,NW,325,7.0,15.0,45,0.00,CLR,,0.00,WeatherDisplay:10.37,2013-03-07 22:00:00,
2013-03-07 17:15:00,45.1,25.6,30.20,NNW,346,3.0,17.0,46,0.00,CLR,,0.00,WeatherDisplay:10.37,2013-03-07 22:15:00,
2013-03-07 17:30:00,44.5,25.5,30.20,NNW,339,5.0,12.0,47,0.00,CLR,,0.00,WeatherDisplay:10.37,2013-03-07 22:30:00,
2013-03-07 17:45:00,43.7,25.3,30.20,North,350,5.0,14.0,48,0.00,CLR,,0.00,WeatherDisplay:10.37,2013-03-07 22:45:00,
2013-03-07 18:00:00,42.9,25.0,30.21,North,358,3.0,15.0,49,0.00,CLR,,0.00,WeatherDisplay:10.37,2013-03-07 23:00:00,
2013-03-07 18:15:00,41.9,25.1,30.22,NNW,340,6.0,12.0,51,0.00,CLR,,0.00,WeatherDisplay:10.37,2013-03-07 23:15:00,
2013-03-07 18:30:00,41.0,24.3,30.23,NNW,340,3.0,12.0,51,0.00,CLR,,0.00,WeatherDisplay:10.37,2013-03-07 23:30:00,
2013-03-07 18:45:00,40.2,23.5,30.23,NNW,346,5.0,13.0,51,0.00,CLR,,0.00,WeatherDisplay:10.37,2013-03-07 23:45:00,
2013-03-07 19:00:00,39.6,23.4,30.25,North,357,5.0,9.0,52,0.00,CLR,,0.00,WeatherDisplay:10.37,2013-03-08 00:00:00,
2013-03-07 19:15:00,38.9,23.7,30.25,NNW,331,2.0,12.0,54,0.00,CLR,,0.00,WeatherDisplay:10.37,2013-03-08 00:15:00,
2013-03-07 19:30:00,38.3,23.1,30.26,NNW,337,3.0,10.0,54,0.00,CLR,,0.00,WeatherDisplay:10.37,2013-03-08 00:30:00,
2013-03-07 19:45:00,37.7,22.1,30.26,NNW,339,7.0,12.0,53,0.00,CLR,,0.00,WeatherDisplay:10.37,2013-03-08 00:45:00,
2013-03-07 20:00:00,37.3,22.2,30.27,NNW,339,5.0,12.0,54,0.00,CLR,,0.00,WeatherDisplay:10.37,2013-03-08 01:00:00,
2013-03-07 20:15:00,37.0,22.3,30.27,NNW,332,3.0,14.0,55,0.00,CLR,,0.00,WeatherDisplay:10.37,2013-03-08 01:15:00,
2013-03-07 20:30:00,36.4,21.8,30.28,NW,316,2.0,9.0,55,0.00,CLR,,0.00,WeatherDisplay:10.37,2013-03-08 01:30:00,
2013-03-07 20:45:00,36.0,21.8,30.29,NNW,330,2.0,9.0,56,0.00,CLR,,0.00,WeatherDisplay:10.37,2013-03-08 01:45:00,
2013-03-07 21:00:00,35.6,21.4,30.28,NNW,339,2.0,8.0,56,0.00,CLR,,0.00,WeatherDisplay:10.37,2013-03-08 02:00:00,
2013-03-07 21:15:00,35.3,21.5,30.28,NW,321,5.0,9.0,57,0.00,CLR,,0.00,WeatherDisplay:10.37,2013-03-08 02:15:00,
2013-03-07 21:30:00,34.9,21.2,30.28,NW,319,3.0,8.0,57,0.00,CLR,,0.00,WeatherDisplay:10.37,2013-03-08 02:30:00,
2013-03-07 21:45:00,34.5,21.2,30.28,NW,306,3.0,7.0,58,0.00,CLR,,0.00,WeatherDisplay:10.37,2013-03-08 02:45:00,
2013-03-07 22:00:00,34.2,20.9,30.28,NW,323,2.0,5.0,58,0.00,CLR,,0.00,WeatherDisplay:10.37,2013-03-08 03:00:00,
2013-03-07 22:15:00,33.8,21.0,30.29,NW,323,0.0,4.0,59,0.00,CLR,,0.00,WeatherDisplay:10.37,2013-03-08 03:15:00,
2013-03-07 22:30:00,33.1,20.7,30.29,NW,322,1.0,3.0,60,0.00,CLR,,0.00,WeatherDisplay:10.37,2013-03-08 03:30:00,
2013-03-07 22:45:00,32.3,20.3,30.29,NW,322,1.0,4.0,61,0.00,CLR,,0.00,WeatherDisplay:10.37,2013-03-08 03:45:00,
2013-03-07 23:00:00,31.9,20.4,30.28,NW,319,1.0,5.0,62,0.00,CLR,,0.00,WeatherDisplay:10.37,2013-03-08 04:00:00,
2013-03-07 23:15:00,31.3,20.2,30.28,NW,316,1.0,4.0,63,0.00,CLR,,0.00,WeatherDisplay:10.37,2013-03-08 04:15:00,
2013-03-07 23:30:00,32.2,20.6,30.28,NW,326,2.0,6.0,62,0.00,CLR,,0.00,WeatherDisplay:10.37,2013-03-08 04:30:00,
2013-03-07 23:45:00,32.4,20.4,30.29,NNW,336,0.0,4.0,61,0.00,CLR,,0.00,WeatherDisplay:10.37,2013-03-08 04:45:00,